Time;durP1;ratioP1;P1;durP2;ratioP2;P2;SDS_P1;SDS_P2;PMS_P1;PMS_P2;Temp;Humidity;BMP_temperature;BMP_pressure;BME280_temperature;BME280_humidity;BME280_pressure;Samples;Min_cycle;Max_cycle;Signal;HPM_P1;HPM_P2
2023/12/03 00:02:06;;;;;;;11.40;8.30;;;;;;;25.08;32.37;99597.50;103071;1293;61390;-82
2023/12/03 00:04:31;;;;;;;10.10;8.10;;;;;;;25.08;32.47;99612.78;103048;1294;61391;-82
2023/12/03 00:06:57;;;;;;;9.80;8.20;;;;;;;25.07;32.43;99616.05;103118;1290;61863;-82
2023/12/03 00:09:23;;;;;;;11.20;8.40;;;;;;;25.07;32.41;99623.63;103092;1290;61324;-82
2023/12/03 00:11:48;;;;;;;11.00;8.40;;;;;;;25.08;32.48;99638.88;103187;1289;61415;-82
2023/12/03 00:14:14;;;;;;;11.40;8.40;;;;;;;25.09;32.41;99646.00;103086;1290;62324;-82
2023/12/03 00:16:39;;;;;;;10.40;8.10;;;;;;;25.08;32.44;99644.77;103091;1290;61472;-82
2023/12/03 00:19:05;;;;;;;11.00;8.10;;;;;;;25.08;32.37;99641.67;103076;1294;61473;-82
2023/12/03 00:21:31;;;;;;;12.00;8.40;;;;;;;25.09;32.40;99643.84;103172;1290;61941;-82
2023/12/03 00:23:56;;;;;;;10.90;8.30;;;;;;;25.09;32.45;99651.95;103148;1289;61414;-82
2023/12/03 00:26:22;;;;;;;10.10;8.40;;;;;;;25.09;32.33;99655.87;103176;1291;61367;-82
2023/12/03 00:28:48;;;;;;;10.40;8.10;;;;;;;25.10;32.34;99664.79;103094;1291;61460;-82
2023/12/03 00:31:14;;;;;;;10.70;8.20;;;;;;;25.10;32.58;99675.57;103126;1290;61447;-82
2023/12/03 00:33:39;;;;;;;10.20;8.00;;;;;;;25.10;32.36;99682.73;103086;1290;61492;-82
2023/12/03 00:36:05;;;;;;;12.20;8.60;;;;;;;25.10;32.43;99687.38;103191;1293;61377;-82
2023/12/03 00:38:31;;;;;;;11.70;8.30;;;;;;;25.10;32.46;99686.17;103134;1289;63821;-82
2023/12/03 00:40:56;;;;;;;11.10;7.90;;;;;;;25.11;32.48;99690.99;103181;1288;61475;-82
2023/12/03 00:43:22;;;;;;;10.70;8.40;;;;;;;25.11;32.40;99696.73;103160;1290;61398;-82
2023/12/03 00:45:49;;;;;;;10.40;8.40;;;;;;;25.11;32.28;99697.75;103080;1290;61436;-82
2023/12/03 00:48:15;;;;;;;11.50;7.70;;;;;;;25.11;32.36;99695.25;103375;1290;62445;-82
2023/12/03 00:50:41;;;;;;;11.50;8.60;;;;;;;25.12;32.34;99700.77;103134;1289;61496;-82
2023/12/03 00:53:07;;;;;;;10.30;7.60;;;;;;;25.12;32.52;99700.02;103145;1289;61439;-82
2023/12/03 00:55:32;;;;;;;10.40;7.70;;;;;;;25.12;32.35;99702.17;103179;1289;61300;-82
2023/12/03 00:57:59;;;;;;;10.60;8.20;;;;;;;25.12;32.29;99699.34;103140;1290;61579;-82
2023/12/03 01:00:24;;;;;;;12.40;8.10;;;;;;;25.12;32.23;99702.89;103055;1289;61490;-82
2023/12/03 01:02:50;;;;;;;11.90;7.80;;;;;;;25.12;32.21;99710.48;103258;1293;61313;-82
2023/12/03 01:05:15;;;;;;;10.60;8.10;;;;;;;25.12;32.38;99720.71;103167;1289;62361;-82
2023/12/03 01:07:41;;;;;;;12.10;8.00;;;;;;;25.12;32.37;99724.30;103306;1289;61417;-82
2023/12/03 01:10:07;;;;;;;12.30;8.10;;;;;;;25.13;32.30;99717.44;103095;1290;61306;-82
2023/12/03 01:12:33;;;;;;;12.00;8.60;;;;;;;25.13;32.34;99720.84;103147;1289;61308;-82
2023/12/03 01:14:58;;;;;;;12.40;8.10;;;;;;;25.13;32.43;99728.95;103293;1289;61408;-82
2023/12/03 01:17:24;;;;;;;10.60;7.90;;;;;;;25.13;32.19;99730.53;103145;1289;61416;-82
2023/12/03 01:19:49;;;;;;;11.10;8.20;;;;;;;25.14;32.27;99736.25;103200;1291;62288;-82
2023/12/03 01:22:15;;;;;;;11.30;7.60;;;;;;;25.13;32.25;99741.85;103179;1290;61323;-82
2023/12/03 01:24:41;;;;;;;10.80;8.10;;;;;;;25.14;32.37;99741.98;103195;1293;63663;-82
2023/12/03 01:27:07;;;;;;;11.40;8.10;;;;;;;25.13;32.28;99744.17;103167;1289;61390;-82
2023/12/03 01:29:33;;;;;;;10.40;7.70;;;;;;;25.14;32.33;99751.33;103110;1290;61474;-82
2023/12/03 01:31:58;;;;;;;11.40;8.30;;;;;;;25.14;32.40;99754.77;103188;1290;63009;-82
2023/12/03 01:34:24;;;;;;;11.00;8.30;;;;;;;25.13;32.38;99755.34;103239;1293;61847;-82
2023/12/03 01:36:50;;;;;;;11.40;8.20;;;;;;;25.14;32.48;99759.05;103172;1290;61385;-82
2023/12/03 01:39:15;;;;;;;11.20;8.50;;;;;;;25.14;32.33;99757.23;103187;1294;65957;-82
2023/12/03 01:41:41;;;;;;;10.00;7.80;;;;;;;25.14;32.22;99760.11;103168;1290;61427;-82
2023/12/03 01:44:06;;;;;;;11.20;7.60;;;;;;;25.14;32.33;99757.05;103221;1293;61406;-82
2023/12/03 01:46:32;;;;;;;10.70;7.80;;;;;;;25.15;32.24;99760.63;103095;1293;61864;-82
2023/12/03 01:48:58;;;;;;;9.60;7.80;;;;;;;25.14;32.31;99762.27;103101;1291;62375;-82
2023/12/03 01:51:23;;;;;;;11.10;8.30;;;;;;;25.15;32.30;99771.05;103153;1289;65847;-82
2023/12/03 01:53:49;;;;;;;11.90;8.00;;;;;;;25.14;32.17;99772.50;103080;1294;61485;-82
2023/12/03 01:56:15;;;;;;;10.90;7.90;;;;;;;25.15;32.29;99775.85;103292;1290;61435;-82
2023/12/03 01:58:41;;;;;;;10.40;7.40;;;;;;;25.15;32.30;99770.65;103162;1290;61377;-82
2023/12/03 02:01:06;;;;;;;11.90;7.90;;;;;;;25.15;32.28;99776.92;103084;1290;62384;-82
2023/12/03 02:03:32;;;;;;;9.40;7.30;;;;;;;25.15;32.36;99769.73;103244;1290;61466;-82
2023/12/03 02:06:05;;;;;;;9.70;7.40;;;;;;;25.15;32.37;99764.66;103114;1290;61421;-82
2023/12/03 02:08:32;;;;;;;11.60;7.60;;;;;;;25.15;32.34;99765.04;103135;1290;61322;-82
2023/12/03 02:10:59;;;;;;;13.30;7.80;;;;;;;25.15;32.24;99765.42;103094;1290;61378;-82
2023/12/03 02:13:25;;;;;;;10.60;8.10;;;;;;;25.15;32.10;99765.01;103288;1289;65723;-82
2023/12/03 02:15:51;;;;;;;13.00;7.60;;;;;;;25.16;32.35;99764.27;103124;1290;61634;-82
2023/12/03 02:18:16;;;;;;;9.50;7.60;;;;;;;25.16;32.30;99769.48;103147;1289;62383;-82
2023/12/03 02:20:43;;;;;;;10.70;8.40;;;;;;;25.16;32.35;99769.33;103165;1290;62039;-82
2023/12/03 02:23:09;;;;;;;11.60;8.30;;;;;;;25.16;32.23;99773.76;103119;1291;61393;-82
2023/12/03 02:25:35;;;;;;;11.70;8.30;;;;;;;25.16;32.16;99778.66;103172;1290;61394;-82
2023/12/03 02:28:00;;;;;;;10.50;7.70;;;;;;;25.17;32.32;99790.77;103224;1289;61476;-82
2023/12/03 02:30:26;;;;;;;10.70;8.10;;;;;;;25.17;32.23;99796.05;103185;1293;61397;-82
2023/12/03 02:32:51;;;;;;;10.30;7.40;;;;;;;25.17;32.30;99793.84;103128;1290;61248;-82
2023/12/03 02:35:17;;;;;;;10.10;7.70;;;;;;;25.17;32.28;99806.60;103153;1290;61464;-82
2023/12/03 02:37:43;;;;;;;11.60;7.80;;;;;;;25.17;32.25;99820.61;103192;1294;61338;-82
2023/12/03 02:40:09;;;;;;;10.50;7.10;;;;;;;25.18;32.31;99817.31;103449;1289;61392;-82
2023/12/03 02:42:34;;;;;;;11.30;7.70;;;;;;;25.18;32.34;99804.92;103219;1293;61371;-82
2023/12/03 02:45:00;;;;;;;10.10;8.00;;;;;;;25.18;32.39;99801.82;103471;1290;61458;-82
2023/12/03 02:47:26;;;;;;;9.70;7.60;;;;;;;25.18;32.23;99795.88;103214;1288;74268;-82
2023/12/03 02:49:51;;;;;;;9.80;7.40;;;;;;;25.18;32.23;99804.35;103245;1297;61394;-82
2023/12/03 02:52:17;;;;;;;10.30;7.60;;;;;;;25.18;32.22;99811.15;103205;1290;62192;-82
2023/12/03 02:54:43;;;;;;;10.60;7.90;;;;;;;25.19;32.13;99815.63;103196;1293;61481;-82
2023/12/03 02:57:08;;;;;;;10.50;7.20;;;;;;;25.19;32.28;99831.42;103272;1291;62344;-83
2023/12/03 02:59:34;;;;;;;10.00;7.80;;;;;;;25.19;32.19;99842.06;103207;1293;65821;-82
2023/12/03 03:01:59;;;;;;;10.20;7.30;;;;;;;25.19;32.14;99851.92;103151;1290;61412;-82
2023/12/03 03:04:25;;;;;;;9.40;7.40;;;;;;;25.19;32.24;99853.58;103434;1290;61902;-82
2023/12/03 03:06:50;;;;;;;10.60;7.80;;;;;;;25.20;32.17;99851.52;103155;1290;61848;-81
2023/12/03 03:09:16;;;;;;;10.60;7.80;;;;;;;25.20;32.26;99847.41;103138;1294;61373;-81
2023/12/03 03:11:42;;;;;;;11.70;7.40;;;;;;;25.20;32.20;99850.96;103203;1294;65859;-81
2023/12/03 03:14:07;;;;;;;10.60;7.60;;;;;;;25.19;32.11;99849.23;103296;1289;61563;-81
2023/12/03 03:16:34;;;;;;;9.70;7.50;;;;;;;25.20;32.23;99847.41;103120;1290;61404;-81
2023/12/03 03:19:00;;;;;;;10.40;7.70;;;;;;;25.20;32.28;99859.26;103165;1290;62293;-81
2023/12/03 03:21:26;;;;;;;9.40;7.00;;;;;;;25.20;32.15;99866.45;103155;1290;61366;-81
2023/12/03 03:23:52;;;;;;;10.40;7.80;;;;;;;25.20;32.21;99866.10;103161;1289;62264;-81
2023/12/03 03:26:18;;;;;;;10.20;7.50;;;;;;;25.20;32.07;99866.41;103259;1290;61423;-81
2023/12/03 03:28:43;;;;;;;10.90;7.20;;;;;;;25.20;32.20;99862.63;103077;1290;62852;-81
2023/12/03 03:31:10;;;;;;;10.10;7.30;;;;;;;25.20;32.22;99865.16;103108;1289;63776;-81
2023/12/03 03:33:35;;;;;;;10.50;7.90;;;;;;;25.20;32.16;99871.44;103139;1291;61412;-81
2023/12/03 03:36:01;;;;;;;10.90;7.30;;;;;;;25.20;32.23;99877.02;103087;1291;61391;-81
2023/12/03 03:38:27;;;;;;;11.20;7.40;;;;;;;25.21;32.23;99879.71;103171;1289;61383;-82
2023/12/03 03:40:53;;;;;;;9.20;7.30;;;;;;;25.20;32.12;99882.11;103155;1290;61842;-81
2023/12/03 03:43:18;;;;;;;9.40;7.20;;;;;;;25.21;32.26;99889.23;103170;1296;61430;-81
2023/12/03 03:45:44;;;;;;;10.40;7.30;;;;;;;25.21;32.28;99894.80;103162;1290;61500;-81
2023/12/03 03:48:10;;;;;;;9.70;7.20;;;;;;;25.20;32.18;99902.03;103197;1293;61421;-81
2023/12/03 03:50:36;;;;;;;8.90;7.00;;;;;;;25.21;32.22;99902.38;103187;1289;61379;-81
2023/12/03 03:53:01;;;;;;;9.30;6.80;;;;;;;25.21;32.15;99902.17;103277;1295;61317;-81
2023/12/03 03:55:27;;;;;;;10.90;7.50;;;;;;;25.22;32.15;99904.98;103230;1289;61929;-81
2023/12/03 03:57:53;;;;;;;10.20;7.60;;;;;;;25.21;32.22;99912.57;103328;1290;61402;-81
2023/12/03 04:00:18;;;;;;;10.20;7.40;;;;;;;25.22;32.13;99918.86;103263;1289;61419;-81
2023/12/03 04:02:44;;;;;;;10.20;7.50;;;;;;;25.21;32.09;99913.81;103320;1289;62251;-81
2023/12/03 04:05:10;;;;;;;9.00;7.30;;;;;;;25.22;32.13;99909.13;103093;1291;62627;-81
2023/12/03 04:07:35;;;;;;;9.40;7.40;;;;;;;25.22;32.25;99917.69;103199;1290;61383;-81
2023/12/03 04:10:01;;;;;;;9.40;7.00;;;;;;;25.22;32.18;99910.86;103185;1291;61377;-81
2023/12/03 04:12:27;;;;;;;10.40;7.60;;;;;;;25.23;32.11;99907.96;103197;1290;61800;-81
2023/12/03 04:14:52;;;;;;;9.70;7.50;;;;;;;25.23;32.13;99914.38;103283;1289;61338;-81
2023/12/03 04:17:18;;;;;;;9.00;7.20;;;;;;;25.23;32.01;99912.40;103134;1289;61456;-81
2023/12/03 04:19:45;;;;;;;10.00;7.20;;;;;;;25.23;32.11;99916.73;103202;1288;65958;-81
2023/12/03 04:22:11;;;;;;;10.50;6.90;;;;;;;25.24;32.06;99922.20;103250;1290;61396;-82
2023/12/03 04:24:36;;;;;;;10.60;7.50;;;;;;;25.24;32.09;99922.91;103291;1293;61399;-81
2023/12/03 04:27:03;;;;;;;10.40;7.20;;;;;;;25.25;32.26;99921.78;103219;1290;62053;-81
2023/12/03 04:29:29;;;;;;;11.40;6.90;;;;;;;25.24;32.17;99914.98;103242;1290;61342;-81
2023/12/03 04:31:54;;;;;;;11.40;7.30;;;;;;;25.25;32.14;99917.42;103217;1289;61294;-81
2023/12/03 04:34:20;;;;;;;8.90;6.80;;;;;;;25.25;32.08;99929.34;103342;1289;61314;-81
2023/12/03 04:36:46;;;;;;;9.70;7.10;;;;;;;25.25;32.03;99932.38;103179;1291;61385;-81
2023/12/03 04:39:11;;;;;;;8.40;6.70;;;;;;;25.25;31.95;99936.33;103293;1289;61477;-81
2023/12/03 04:41:40;;;;;;;10.10;7.30;;;;;;;25.25;32.22;99945.00;103244;1290;61408;-81
2023/12/03 04:44:06;;;;;;;9.50;7.10;;;;;;;25.26;32.20;99950.30;103172;1290;61299;-81
2023/12/03 04:46:31;;;;;;;11.40;7.00;;;;;;;25.25;32.10;99958.23;103377;1289;61493;-81
2023/12/03 04:48:57;;;;;;;9.70;7.20;;;;;;;25.26;32.16;99960.91;103114;1290;62351;-81
2023/12/03 04:51:22;;;;;;;9.80;7.00;;;;;;;25.26;32.20;99966.83;103184;1294;61497;-81
2023/12/03 04:53:48;;;;;;;9.70;6.90;;;;;;;25.26;32.25;99974.77;103397;1288;62003;-81
2023/12/03 04:56:14;;;;;;;12.20;7.50;;;;;;;25.26;32.18;99979.97;103230;1288;61361;-81
2023/12/03 04:58:39;;;;;;;11.00;7.10;;;;;;;25.26;32.16;99984.27;103235;1288;61494;-81
2023/12/03 05:01:05;;;;;;;10.10;7.10;;;;;;;25.26;32.15;99984.65;103194;1289;61455;-81
2023/12/03 05:03:31;;;;;;;10.70;7.00;;;;;;;25.26;32.13;99988.95;103422;1288;62187;-81
2023/12/03 05:05:56;;;;;;;10.70;7.00;;;;;;;25.27;32.08;99992.52;103188;1288;61399;-81
2023/12/03 05:08:22;;;;;;;9.90;6.90;;;;;;;25.26;32.03;99993.27;103456;1294;61474;-81
2023/12/03 05:10:47;;;;;;;10.00;7.40;;;;;;;25.27;32.05;100003.67;103197;1288;61403;-81
2023/12/03 05:13:15;;;;;;;9.70;6.90;;;;;;;25.27;32.04;100016.64;103163;1294;61395;-81
2023/12/03 05:15:41;;;;;;;9.90;7.00;;;;;;;25.27;32.15;100011.41;103168;1288;65672;-81
2023/12/03 05:18:06;;;;;;;11.50;7.30;;;;;;;25.27;32.02;100016.10;103430;1289;62259;-81
2023/12/03 05:20:32;;;;;;;10.30;7.00;;;;;;;25.27;32.18;100017.54;103194;1288;61833;-81
2023/12/03 05:22:57;;;;;;;9.60;7.10;;;;;;;25.26;32.16;100012.35;103189;1288;62381;-81
2023/12/03 05:25:23;;;;;;;9.30;6.70;;;;;;;25.26;32.22;100021.34;103356;1295;61381;-81
2023/12/03 05:27:49;;;;;;;9.20;6.70;;;;;;;25.27;32.12;100030.28;103478;1288;61425;-81
2023/12/03 05:30:15;;;;;;;10.30;7.40;;;;;;;25.28;32.14;100038.15;103257;1288;61439;-81
2023/12/03 05:32:41;;;;;;;11.30;7.40;;;;;;;25.28;32.22;100046.80;103208;1288;62130;-81
2023/12/03 05:35:07;;;;;;;9.50;6.90;;;;;;;25.28;32.11;100049.10;103290;1288;61460;-81
2023/12/03 05:37:33;;;;;;;8.60;7.10;;;;;;;25.28;32.18;100055.92;103244;1294;61404;-81
2023/12/03 05:39:58;;;;;;;8.20;6.50;;;;;;;25.29;32.23;100057.85;103235;1288;61400;-81
2023/12/03 05:42:24;;;;;;;10.60;6.50;;;;;;;25.29;32.20;100060.73;103231;1294;61270;-81
2023/12/03 05:44:49;;;;;;;10.70;6.90;;;;;;;25.29;32.13;100075.48;103210;1288;61508;-81
2023/12/03 05:47:15;;;;;;;9.40;6.70;;;;;;;25.29;32.06;100075.51;103398;1288;61405;-81
2023/12/03 05:49:41;;;;;;;7.30;6.00;;;;;;;25.29;32.23;100074.96;103390;1294;61401;-81
2023/12/03 05:52:07;;;;;;;10.00;7.20;;;;;;;25.30;32.29;100082.67;103258;1296;61456;-81
2023/12/03 05:54:34;;;;;;;9.40;6.80;;;;;;;25.30;32.21;100097.58;103250;1290;61470;-81
2023/12/03 05:56:59;;;;;;;9.30;6.60;;;;;;;25.30;32.19;100104.45;103201;1293;61403;-81
2023/12/03 05:59:26;;;;;;;10.00;6.90;;;;;;;25.30;32.11;100108.02;103181;1294;61355;-81
2023/12/03 06:01:52;;;;;;;8.80;6.80;;;;;;;25.30;32.06;100107.60;103193;1290;61412;-81
2023/12/03 06:04:20;;;;;;;10.30;6.80;;;;;;;25.30;32.10;100109.05;103149;1290;61349;-81
2023/12/03 06:06:46;;;;;;;10.30;7.00;;;;;;;25.30;32.17;100113.05;103132;1289;61546;-81
2023/12/03 06:09:12;;;;;;;9.90;6.90;;;;;;;25.30;32.16;100118.79;103215;1290;61399;-81
2023/12/03 06:11:37;;;;;;;9.90;6.90;;;;;;;25.31;32.16;100114.96;103153;1290;61470;-81
2023/12/03 06:14:04;;;;;;;9.60;6.50;;;;;;;25.31;32.17;100113.27;103278;1289;62023;-81
2023/12/03 06:16:30;;;;;;;11.60;6.90;;;;;;;25.31;32.26;100122.64;103275;1290;62439;-81
2023/12/03 06:18:56;;;;;;;9.60;7.10;;;;;;;25.32;32.22;100133.95;103276;1296;61212;-82
2023/12/03 06:21:22;;;;;;;9.60;7.00;;;;;;;25.32;32.19;100146.89;103261;1289;61393;-81
2023/12/03 06:23:48;;;;;;;9.40;6.90;;;;;;;25.33;32.18;100156.13;103186;1293;61398;-81
2023/12/03 06:26:13;;;;;;;9.00;6.90;;;;;;;25.34;32.13;100160.77;103250;1288;61426;-81
2023/12/03 06:28:39;;;;;;;10.70;6.90;;;;;;;25.34;32.30;100162.56;103180;1290;61427;-81
2023/12/03 06:31:06;;;;;;;10.60;7.20;;;;;;;25.34;32.07;100166.52;103182;1294;61555;-81
2023/12/03 06:33:32;;;;;;;10.80;7.00;;;;;;;25.34;32.11;100177.84;103312;1289;66048;-81
2023/12/03 06:35:58;;;;;;;10.00;7.20;;;;;;;25.34;32.03;100182.50;103163;1293;61360;-81
2023/12/03 06:38:24;;;;;;;9.30;7.00;;;;;;;25.35;32.19;100192.75;103273;1290;61474;-81
2023/12/03 06:40:49;;;;;;;10.40;7.10;;;;;;;25.35;32.04;100204.27;103103;1290;62364;-81
2023/12/03 06:43:15;;;;;;;9.50;6.80;;;;;;;25.35;32.09;100198.83;103131;1289;61749;-81
2023/12/03 06:45:40;;;;;;;8.80;6.70;;;;;;;25.36;32.23;100200.38;103381;1289;61477;-81
2023/12/03 06:48:06;;;;;;;8.30;6.70;;;;;;;25.36;32.38;100202.33;103159;1290;61396;-81
2023/12/03 06:50:32;;;;;;;8.70;6.90;;;;;;;25.36;32.33;100206.81;103114;1289;62225;-81
2023/12/03 06:52:57;;;;;;;10.50;7.00;;;;;;;25.37;32.26;100210.22;103162;1293;61340;-81
2023/12/03 06:55:23;;;;;;;10.10;6.70;;;;;;;25.37;32.20;100216.11;103281;1290;62292;-82
2023/12/03 06:57:52;;;;;;;10.40;7.00;;;;;;;25.37;32.10;100225.66;103206;1290;61331;-81
2023/12/03 07:00:19;;;;;;;10.10;6.80;;;;;;;25.37;32.13;100234.48;103254;1291;62193;-81
2023/12/03 07:02:44;;;;;;;10.00;6.50;;;;;;;25.38;32.24;100249.91;103110;1290;61947;-81
2023/12/03 07:05:10;;;;;;;10.50;7.00;;;;;;;25.38;32.24;100255.86;103195;1289;61949;-81
2023/12/03 07:07:36;;;;;;;8.60;7.00;;;;;;;25.38;32.26;100262.82;103252;1290;61297;-81
2023/12/03 07:10:02;;;;;;;9.60;6.90;;;;;;;25.39;32.31;100274.11;103226;1289;62826;-81
2023/12/03 07:12:28;;;;;;;11.50;7.20;;;;;;;25.39;32.22;100281.10;103180;1294;61500;-81
2023/12/03 07:14:54;;;;;;;9.20;7.00;;;;;;;25.39;32.23;100289.02;103164;1289;61471;-81
2023/12/03 07:17:20;;;;;;;9.70;6.80;;;;;;;25.39;32.15;100289.55;103264;1290;61371;-82
2023/12/03 07:19:45;;;;;;;10.00;7.30;;;;;;;25.40;32.24;100301.95;103157;1294;62072;-81
2023/12/03 07:22:11;;;;;;;10.50;7.00;;;;;;;25.40;32.15;100307.86;103188;1290;61491;-81
2023/12/03 07:24:40;;;;;;;9.40;7.00;;;;;;;25.40;32.20;100309.34;103106;1293;61408;-81
2023/12/03 07:27:07;;;;;;;9.80;6.60;;;;;;;25.40;32.26;100315.63;103223;1293;64575;-81
2023/12/03 07:29:33;;;;;;;8.10;6.40;;;;;;;25.40;32.26;100321.55;103224;1291;61460;-81
2023/12/03 07:31:59;;;;;;;10.30;7.10;;;;;;;25.41;32.19;100321.68;103328;1289;61392;-81
2023/12/03 07:34:26;;;;;;;9.90;6.90;;;;;;;25.40;32.19;100329.63;103179;1294;61348;-81
2023/12/03 07:36:52;;;;;;;9.40;7.20;;;;;;;25.41;32.12;100343.05;102550;1291;980209;-81
2023/12/03 07:39:18;;;;;;;10.00;7.10;;;;;;;25.41;32.29;100344.65;103169;1290;61286;-81
2023/12/03 07:41:50;;;;;;;8.50;6.60;;;;;;;25.41;32.20;100350.80;103125;1289;61408;-81
2023/12/03 07:44:16;;;;;;;8.00;6.30;;;;;;;25.41;32.26;100361.05;103163;1290;62734;-81
2023/12/03 07:46:42;;;;;;;8.70;6.80;;;;;;;25.42;32.18;100361.02;103270;1290;61406;-81
2023/12/03 07:49:08;;;;;;;9.50;7.10;;;;;;;25.42;32.34;100350.55;103130;1290;61349;-81
2023/12/03 07:51:34;;;;;;;10.50;6.70;;;;;;;25.42;32.16;100349.67;103106;1294;61393;-81
2023/12/03 07:53:59;;;;;;;11.60;7.10;;;;;;;25.42;32.16;100355.90;103164;1294;61408;-81
2023/12/03 07:56:38;;;;;;;9.50;6.90;;;;;;;25.42;32.17;100368.73;103238;1290;61493;-81
2023/12/03 07:59:04;;;;;;;;;;;;;;;25.42;32.22;100373.75;103211;1290;75894;-81
2023/12/03 08:01:29;;;;;;;10.30;7.50;;;;;;;25.39;32.36;100380.88;103103;1291;61437;-81
2023/12/03 08:03:55;;;;;;;10.30;7.10;;;;;;;25.41;32.26;100382.35;103141;1291;61361;-81
2023/12/03 08:06:21;;;;;;;9.90;6.70;;;;;;;25.41;32.23;100380.88;103188;1291;61405;-81
2023/12/03 08:08:46;;;;;;;10.10;7.10;;;;;;;25.42;32.27;100383.72;103458;1293;61288;-81
2023/12/03 08:11:12;;;;;;;9.00;6.70;;;;;;;25.42;32.27;100385.52;103195;1293;65806;-81
2023/12/03 08:13:38;;;;;;;8.60;6.40;;;;;;;25.42;32.22;100388.86;103150;1290;61416;-81
2023/12/03 08:16:04;;;;;;;10.20;6.80;;;;;;;25.42;32.20;100398.29;103235;1290;61404;-81
2023/12/03 08:18:31;;;;;;;10.40;6.70;;;;;;;25.43;32.33;100404.84;103189;1294;61356;-81
2023/12/03 08:20:57;;;;;;;9.60;7.10;;;;;;;25.43;32.31;100406.27;103171;1290;62953;-81
2023/12/03 08:23:23;;;;;;;8.80;7.00;;;;;;;25.43;32.31;100413.66;103163;1293;61301;-81
2023/12/03 08:25:49;;;;;;;9.10;7.20;;;;;;;25.44;32.23;100415.57;103201;1291;61313;-81
2023/12/03 08:28:15;;;;;;;9.30;6.90;;;;;;;25.44;32.25;100418.97;103099;1291;62929;-81
2023/12/03 08:30:40;;;;;;;10.10;7.30;;;;;;;25.44;32.20;100418.27;103116;1294;61380;-81
2023/12/03 08:33:06;;;;;;;9.30;7.20;;;;;;;25.44;32.37;100420.44;103327;1290;61480;-81
2023/12/03 08:35:32;;;;;;;9.80;7.10;;;;;;;25.45;32.26;100431.72;103274;1290;61328;-81
2023/12/03 08:37:57;;;;;;;9.30;6.90;;;;;;;25.45;32.26;100429.73;103218;1293;61364;-81
2023/12/03 08:40:23;;;;;;;10.80;7.30;;;;;;;25.46;32.23;100419.39;103187;1293;61471;-81
2023/12/03 08:42:49;;;;;;;8.70;6.80;;;;;;;25.46;32.20;100411.45;103173;1294;61380;-81
2023/12/03 08:45:14;;;;;;;8.80;6.80;;;;;;;25.45;32.21;100416.67;103120;1289;61407;-81
2023/12/03 08:47:40;;;;;;;9.00;6.90;;;;;;;25.46;32.17;100425.83;103122;1290;61407;-81
2023/12/03 08:50:06;;;;;;;9.10;6.50;;;;;;;25.46;32.12;100442.22;103070;1294;61383;-82
2023/12/03 08:52:32;;;;;;;9.90;6.90;;;;;;;25.46;32.33;100446.70;103181;1291;61424;-82
2023/12/03 08:54:59;;;;;;;9.30;7.10;;;;;;;25.47;32.22;100454.78;103081;1291;61397;-81
2023/12/03 08:57:30;;;;;;;9.10;6.70;;;;;;;25.47;32.38;100449.92;103113;1293;61408;-81
2023/12/03 08:59:56;;;;;;;10.60;7.40;;;;;;;25.47;32.38;100444.31;103115;1289;62380;-81
2023/12/03 09:02:24;;;;;;;9.40;6.80;;;;;;;25.47;32.16;100449.70;103153;1294;61845;-81
2023/12/03 09:04:52;;;;;;;9.00;6.50;;;;;;;25.47;32.31;100447.16;103157;1288;65920;-81
2023/12/03 09:07:18;;;;;;;10.50;7.20;;;;;;;25.47;32.28;100447.19;103190;1290;61462;-81
2023/12/03 09:09:43;;;;;;;9.20;6.90;;;;;;;25.47;32.24;100451.63;103200;1293;61418;-81
2023/12/03 09:12:09;;;;;;;10.10;7.00;;;;;;;25.47;32.19;100447.53;103419;1290;61320;-81
2023/12/03 09:14:35;;;;;;;8.70;6.50;;;;;;;25.48;32.12;100444.25;103117;1293;61404;-81
2023/12/03 09:17:01;;;;;;;9.00;6.50;;;;;;;25.48;32.27;100442.54;103231;1294;62328;-81
2023/12/03 09:19:28;;;;;;;8.90;6.90;;;;;;;25.49;32.25;100427.02;103203;1293;61887;-82
2023/12/03 09:21:54;;;;;;;9.80;7.00;;;;;;;25.48;32.26;100421.64;103127;1292;61298;-81
2023/12/03 09:24:20;;;;;;;9.00;6.60;;;;;;;25.49;32.19;100429.37;103244;1291;61450;-81
2023/12/03 09:26:46;;;;;;;9.10;7.10;;;;;;;25.49;32.22;100435.66;103168;1290;61678;-81
2023/12/03 09:29:13;;;;;;;10.20;7.30;;;;;;;25.49;32.24;100425.73;103205;1290;61458;-81
2023/12/03 09:31:42;;;;;;;9.70;7.20;;;;;;;25.50;32.26;100425.85;103168;1289;61271;-81
2023/12/03 09:34:08;;;;;;;8.70;6.90;;;;;;;25.50;32.27;100420.60;103134;1294;72997;-81
2023/12/03 09:36:34;;;;;;;9.40;7.00;;;;;;;25.50;32.27;100415.54;103287;1297;61476;-81
2023/12/03 09:39:00;;;;;;;9.50;6.70;;;;;;;25.50;32.27;100433.01;103287;1290;61401;-81
2023/12/03 09:41:33;;;;;;;8.50;6.80;;;;;;;25.50;32.33;100439.30;103211;1289;61386;-81
2023/12/03 09:43:59;;;;;;;10.60;6.80;;;;;;;25.51;32.43;100432.75;103120;1293;72896;-81
2023/12/03 09:46:33;;;;;;;9.50;6.70;;;;;;;25.50;32.39;100441.27;103164;1290;62506;-81
2023/12/03 09:49:00;;;;;;;9.50;6.90;;;;;;;25.51;32.32;100446.80;103214;1290;61465;-81
2023/12/03 09:51:25;;;;;;;9.00;6.70;;;;;;;25.51;32.37;100453.08;103143;1292;62959;-81
2023/12/03 09:53:51;;;;;;;9.10;6.80;;;;;;;25.51;32.35;100459.02;103111;1293;61405;-81
2023/12/03 09:56:17;;;;;;;10.40;6.60;;;;;;;25.52;32.35;100456.44;103163;1294;61396;-81
2023/12/03 09:58:42;;;;;;;9.80;7.20;;;;;;;25.52;32.30;100460.36;103219;1291;61369;-82
2023/12/03 10:01:10;;;;;;;10.10;6.40;;;;;;;25.52;32.37;100456.55;103345;1294;61322;-81
2023/12/03 10:03:36;;;;;;;9.60;6.90;;;;;;;25.52;32.43;100458.75;103192;1290;61374;-81
2023/12/03 10:06:02;;;;;;;9.30;6.60;;;;;;;25.53;32.31;100464.80;103201;1294;61391;-81
2023/12/03 10:08:28;;;;;;;9.40;6.80;;;;;;;25.53;32.36;100471.46;103105;1293;61364;-81
2023/12/03 10:11:02;;;;;;;8.90;6.40;;;;;;;25.53;32.41;100478.14;103296;1293;61940;-81
2023/12/03 10:13:30;;;;;;;9.10;6.90;;;;;;;25.54;32.45;100490.86;103154;1291;61266;-81
2023/12/03 10:15:59;;;;;;;11.00;6.90;;;;;;;25.53;32.51;100493.45;103200;1293;63841;-81
2023/12/03 10:18:24;;;;;;;9.60;7.00;;;;;;;25.53;32.47;100492.16;103113;1289;61422;-81
2023/12/03 10:21:07;;;;;;;9.60;6.90;;;;;;;25.53;32.54;100494.67;103205;1293;61383;-81
2023/12/03 10:23:36;;;;;;;9.10;6.60;;;;;;;25.54;32.50;100497.51;103134;1290;61270;-81
2023/12/03 10:26:15;;;;;;;;;;;;;;;25.54;32.39;100494.28;103170;1289;63998;-82
2023/12/03 10:28:41;;;;;;;9.60;6.70;;;;;;;25.51;32.36;100499.91;103180;1289;74482;-81
2023/12/03 10:31:18;;;;;;;8.80;6.50;;;;;;;25.52;32.44;100506.34;103186;1295;62145;-81
2023/12/03 10:33:44;;;;;;;8.10;6.00;;;;;;;25.52;32.36;100506.99;103143;1291;61330;-81
2023/12/03 10:36:11;;;;;;;9.20;6.40;;;;;;;25.53;32.49;100507.65;103173;1289;61326;-81
2023/12/03 10:38:41;;;;;;;8.20;6.50;;;;;;;25.54;32.28;100515.89;103268;1290;61437;-81
2023/12/03 10:41:07;;;;;;;8.20;6.10;;;;;;;25.54;32.36;100509.95;103124;1291;61931;-81
2023/12/03 10:43:35;;;;;;;10.50;6.20;;;;;;;25.54;32.55;100507.40;103244;1293;61374;-81
2023/12/03 10:46:13;;;;;;;10.60;6.70;;;;;;;25.54;32.36;100516.38;103182;1290;71352;-81
2023/12/03 10:48:39;;;;;;;9.20;6.20;;;;;;;25.54;32.48;100517.83;103172;1294;65859;-81
2023/12/03 10:51:06;;;;;;;8.30;6.20;;;;;;;25.54;32.45;100521.96;103627;1289;61413;-81
2023/12/03 10:53:33;;;;;;;10.00;6.30;;;;;;;25.55;32.37;100529.86;103555;1292;61300;-81
2023/12/03 10:56:04;;;;;;;9.20;6.10;;;;;;;25.56;32.50;100532.25;103532;1289;72531;-81
2023/12/03 10:58:31;;;;;;;8.70;6.00;;;;;;;25.56;32.51;100525.93;103551;1294;65984;-81
2023/12/03 11:01:06;;;;;;;6.90;5.50;;;;;;;25.56;32.49;100524.98;103554;1293;62717;-81
2023/12/03 11:03:55;;;;;;;10.20;6.00;;;;;;;25.57;32.37;100519.18;103675;1290;61216;-81
2023/12/03 11:06:26;;;;;;;8.00;6.20;;;;;;;25.57;32.48;100514.84;103657;1295;63906;-81
2023/12/03 11:08:54;;;;;;;8.80;6.00;;;;;;;25.58;32.42;100507.18;103616;1293;65561;-81
2023/12/03 11:11:21;;;;;;;8.50;5.80;;;;;;;25.59;32.47;100508.91;103535;1293;61394;-81
2023/12/03 11:13:51;;;;;;;8.70;5.80;;;;;;;25.59;32.50;100522.42;103482;1295;61297;-81